createdAt,value
2022-10-29T00:00:44.582Z,11.80
2022-10-29T00:03:11.305Z,12.90
2022-10-29T00:05:38.041Z,13.00
2022-10-29T00:08:04.647Z,10.30
2022-10-29T00:10:32.560Z,11.23
2022-10-29T00:13:03.012Z,13.40
2022-10-29T00:15:29.713Z,11.50
2022-10-29T00:17:56.581Z,12.17
2022-10-29T00:20:23.883Z,12.07
2022-10-29T00:22:53.226Z,12.13
2022-10-29T00:25:19.963Z,11.63
2022-10-29T00:27:46.512Z,11.13
2022-10-29T00:30:13.227Z,12.13
2022-10-29T00:32:39.754Z,13.73
2022-10-29T00:35:06.412Z,17.00
2022-10-29T00:37:33.027Z,16.13
2022-10-29T00:39:59.583Z,18.50
2022-10-29T00:42:26.127Z,20.07
2022-10-29T00:44:52.751Z,17.43
2022-10-29T00:47:21.937Z,16.23
2022-10-29T00:49:51.211Z,16.90
2022-10-29T00:52:18.311Z,16.20
2022-10-29T00:54:46.271Z,16.93
2022-10-29T00:57:15.739Z,15.37
2022-10-29T00:59:43.063Z,14.37
2022-10-29T01:02:09.958Z,17.30
2022-10-29T01:04:37.391Z,14.90
2022-10-29T01:07:04.707Z,15.83
2022-10-29T01:09:31.253Z,16.73
2022-10-29T01:11:57.717Z,13.80
2022-10-29T01:14:24.241Z,13.23
2022-10-29T01:17:10.927Z,14.20
2022-10-29T01:19:58.399Z,14.40
2022-10-29T01:22:28.775Z,12.70
2022-10-29T01:25:04.481Z,13.20
2022-10-29T01:27:34.295Z,14.80
2022-10-29T01:30:06.935Z,13.20
2022-10-29T01:32:49.612Z,14.90
2022-10-29T01:35:31.742Z,12.03
2022-10-29T01:38:01.258Z,14.17
2022-10-29T01:40:33.180Z,16.33
2022-10-29T01:43:06.500Z,13.50
2022-10-29T01:45:41.792Z,13.93
2022-10-29T01:48:13.267Z,14.50
2022-10-29T01:50:43.254Z,15.57
2022-10-29T01:53:10.063Z,12.73
2022-10-29T01:55:36.631Z,13.70
2022-10-29T01:58:04.362Z,14.33
2022-10-29T02:00:39.039Z,13.00
2022-10-29T02:03:08.817Z,12.90
2022-10-29T02:05:35.375Z,13.90
2022-10-29T02:08:04.880Z,14.30
2022-10-29T02:10:40.487Z,14.20
2022-10-29T02:13:08.563Z,12.97
2022-10-29T02:15:42.176Z,16.83
2022-10-29T02:18:09.241Z,15.20
2022-10-29T02:20:40.939Z,13.70
2022-10-29T02:23:07.465Z,13.73
2022-10-29T02:25:34.008Z,14.07
2022-10-29T02:28:00.723Z,14.63
2022-10-29T02:30:27.218Z,13.50
2022-10-29T02:32:54.145Z,15.67
2022-10-29T02:35:20.870Z,15.63
2022-10-29T02:37:47.546Z,15.27
2022-10-29T02:40:14.160Z,15.07
2022-10-29T02:42:40.653Z,15.40
2022-10-29T02:45:07.273Z,14.43
2022-10-29T02:47:33.770Z,15.30
2022-10-29T02:50:00.409Z,14.57
2022-10-29T02:52:27.003Z,14.33
2022-10-29T02:54:53.920Z,13.27
2022-10-29T02:57:20.626Z,14.47
2022-10-29T02:59:47.114Z,15.60
2022-10-29T03:02:13.943Z,13.93
2022-10-29T03:04:41.547Z,16.00
2022-10-29T03:07:08.095Z,13.90
2022-10-29T03:09:34.620Z,14.57
2022-10-29T03:12:01.381Z,13.50
2022-10-29T03:14:27.991Z,15.00
2022-10-29T03:16:54.553Z,15.77
2022-10-29T03:19:21.242Z,13.73
2022-10-29T03:21:47.700Z,16.37
2022-10-29T03:24:14.194Z,13.87
2022-10-29T03:26:40.707Z,13.63
2022-10-29T03:29:07.382Z,14.03
2022-10-29T03:31:33.902Z,14.23
2022-10-29T03:34:00.575Z,13.80
2022-10-29T03:36:27.121Z,15.40
2022-10-29T03:38:53.642Z,13.53
2022-10-29T03:41:20.322Z,15.40
2022-10-29T03:43:46.878Z,14.83
2022-10-29T03:46:13.434Z,13.00
2022-10-29T03:48:39.918Z,14.10
2022-10-29T03:51:07.058Z,15.53
2022-10-29T03:53:34.638Z,16.43
2022-10-29T03:56:01.494Z,15.83
2022-10-29T03:58:28.295Z,15.10
2022-10-29T04:00:55.644Z,15.40
2022-10-29T04:03:22.362Z,13.53
2022-10-29T04:05:48.917Z,13.53
2022-10-29T04:08:15.395Z,15.07
2022-10-29T04:10:45.649Z,16.60
2022-10-29T04:13:12.482Z,15.20
2022-10-29T04:15:38.975Z,16.10
2022-10-29T04:18:05.522Z,16.07
2022-10-29T04:20:47.693Z,14.93
2022-10-29T04:27:31.300Z,15.17
2022-10-29T04:28:52.143Z,14.10
2022-10-29T04:31:19.076Z,12.70
2022-10-29T04:33:46.278Z,12.60
2022-10-29T04:36:12.766Z,12.80
2022-10-29T04:38:39.366Z,13.27
2022-10-29T04:41:06.194Z,13.67
2022-10-29T04:43:32.878Z,12.33
2022-10-29T04:45:59.351Z,13.80
2022-10-29T04:48:27.002Z,12.80
2022-10-29T04:50:53.717Z,15.67
2022-10-29T04:53:20.562Z,14.10
2022-10-29T04:55:47.314Z,14.00
2022-10-29T04:58:15.042Z,13.07
2022-10-29T05:00:41.918Z,14.73
2022-10-29T05:03:08.487Z,14.10
2022-10-29T05:05:36.458Z,13.53
2022-10-29T05:08:03.846Z,13.47
2022-10-29T05:10:34.450Z,14.97
2022-10-29T05:13:02.094Z,12.97
2022-10-29T05:15:29.362Z,13.50
2022-10-29T05:17:57.879Z,11.97
2022-10-29T05:20:24.703Z,13.50
2022-10-29T05:22:58.074Z,13.30
2022-10-29T05:25:24.523Z,14.00
2022-10-29T05:27:51.079Z,14.43
2022-10-29T05:30:17.604Z,12.37
2022-10-29T05:32:44.512Z,13.43
2022-10-29T05:35:11.308Z,14.90
2022-10-29T05:37:37.819Z,14.40
2022-10-29T05:40:04.482Z,14.10
2022-10-29T05:42:31.003Z,14.60
2022-10-29T05:44:57.472Z,12.67
2022-10-29T05:47:24.021Z,13.40
2022-10-29T05:49:50.496Z,11.97
2022-10-29T05:52:17.063Z,14.10
2022-10-29T05:54:43.582Z,11.83
2022-10-29T05:57:10.082Z,13.23
2022-10-29T05:59:36.531Z,13.07
2022-10-29T06:02:03.048Z,13.77
2022-10-29T06:04:29.635Z,12.60
2022-10-29T06:06:56.172Z,13.13
2022-10-29T06:09:22.725Z,13.83
2022-10-29T06:11:49.227Z,11.87
2022-10-29T06:14:15.715Z,12.40
2022-10-29T06:16:42.387Z,13.67
2022-10-29T06:19:08.863Z,14.07
2022-10-29T06:21:35.667Z,12.90
2022-10-29T06:24:02.646Z,12.73
2022-10-29T06:26:29.181Z,11.97
2022-10-29T06:28:55.766Z,13.10
2022-10-29T06:31:22.246Z,15.30
2022-10-29T06:33:48.773Z,11.93
2022-10-29T06:36:15.322Z,14.83
2022-10-29T06:38:41.786Z,14.90
2022-10-29T06:41:09.669Z,13.97
2022-10-29T06:43:36.191Z,13.20
2022-10-29T06:46:02.696Z,13.20
2022-10-29T06:48:29.202Z,15.33
2022-10-29T06:50:57.745Z,12.80
2022-10-29T06:53:24.381Z,14.63
2022-10-29T06:55:50.967Z,13.10
2022-10-29T06:58:19.150Z,14.27
2022-10-29T07:00:46.339Z,14.03
2022-10-29T07:03:17.015Z,12.97
2022-10-29T07:05:43.883Z,13.27
2022-10-29T07:08:10.433Z,14.13
2022-10-29T07:10:36.986Z,13.00
2022-10-29T07:13:03.574Z,11.30
2022-10-29T07:15:31.130Z,12.30
2022-10-29T07:18:02.091Z,12.83
2022-10-29T07:20:29.565Z,11.40
2022-10-29T07:22:57.766Z,13.50
2022-10-29T07:25:24.345Z,12.47
2022-10-29T07:27:50.990Z,11.80
2022-10-29T07:30:18.978Z,12.07
2022-10-29T07:32:45.522Z,11.43
2022-10-29T07:35:12.218Z,9.77
2022-10-29T07:37:38.888Z,9.20
2022-10-29T07:40:05.932Z,8.80
2022-10-29T07:42:32.481Z,9.80
2022-10-29T07:44:58.997Z,10.70
2022-10-29T07:47:25.525Z,10.00
2022-10-29T07:49:52.052Z,9.80
2022-10-29T07:52:18.642Z,9.77
2022-10-29T07:54:45.159Z,9.90
2022-10-29T07:57:11.911Z,10.03
2022-10-29T07:59:38.470Z,8.83
2022-10-29T08:02:05.019Z,8.40
2022-10-29T08:04:31.633Z,7.63
2022-10-29T08:06:58.144Z,10.30
2022-10-29T08:09:24.682Z,8.23
2022-10-29T08:11:51.170Z,8.10
2022-10-29T08:14:20.226Z,7.83
2022-10-29T08:16:49.035Z,8.37
2022-10-29T08:19:15.741Z,8.00
2022-10-29T08:21:42.419Z,8.73
2022-10-29T08:24:09.762Z,8.80
2022-10-29T08:26:36.256Z,8.63
2022-10-29T08:29:02.734Z,8.80
2022-10-29T08:31:29.260Z,6.33
2022-10-29T08:33:55.732Z,8.70
2022-10-29T08:36:22.367Z,7.73
2022-10-29T08:38:49.025Z,7.20
2022-10-29T08:41:15.545Z,7.93
2022-10-29T08:46:49.936Z,7.00
2022-10-29T08:49:21.451Z,7.77
2022-10-29T08:51:52.045Z,8.40
2022-10-29T08:54:31.150Z,6.47
2022-10-29T08:56:59.221Z,7.53
2022-10-29T08:59:28.132Z,6.50
2022-10-29T09:01:56.411Z,7.00
2022-10-29T09:04:27.142Z,7.23
2022-10-29T09:06:53.610Z,6.87
2022-10-29T09:09:29.618Z,5.93
2022-10-29T09:12:02.295Z,6.20
2022-10-29T09:14:46.618Z,7.80
2022-10-29T09:17:22.285Z,6.13
2022-10-29T09:19:48.960Z,6.30
2022-10-29T09:22:35.960Z,7.37
2022-10-29T09:25:21.806Z,7.53
2022-10-29T09:27:56.673Z,7.30
2022-10-29T09:30:23.556Z,6.60
2022-10-29T09:32:57.258Z,6.87
2022-10-29T09:35:36.314Z,6.10
2022-10-29T09:38:08.830Z,6.57
2022-10-29T09:40:40.088Z,6.07
2022-10-29T09:43:13.438Z,6.80
2022-10-29T09:45:43.161Z,6.43
2022-10-29T09:48:09.640Z,6.00
2022-10-29T09:51:00.223Z,6.60
2022-10-29T09:53:26.723Z,6.43
2022-10-29T09:55:53.904Z,6.80
2022-10-29T09:58:22.727Z,7.43
2022-10-29T10:00:49.532Z,5.73
2022-10-29T10:03:23.357Z,5.93
2022-10-29T10:05:57.187Z,7.40
2022-10-29T10:08:23.994Z,6.57
2022-10-29T10:10:54.709Z,7.67
2022-10-29T10:13:26.125Z,8.60
2022-10-29T10:15:58.286Z,9.17
2022-10-29T10:18:24.862Z,10.57
2022-10-29T10:21:00.473Z,9.27
2022-10-29T10:23:40.817Z,8.70
2022-10-29T10:26:26.708Z,10.97
2022-10-29T10:29:16.841Z,9.37
2022-10-29T10:31:44.512Z,9.13
2022-10-29T10:34:14.143Z,9.90
2022-10-29T10:36:42.818Z,8.80
2022-10-29T10:39:21.584Z,11.00
2022-10-29T10:41:49.639Z,9.80
2022-10-29T10:44:16.522Z,8.20
2022-10-29T10:46:44.478Z,7.93
2022-10-29T10:49:10.936Z,8.70
2022-10-29T10:51:38.713Z,8.00
2022-10-29T10:54:25.616Z,8.73
2022-10-29T10:56:57.177Z,7.73
2022-10-29T10:59:25.429Z,8.70
2022-10-29T11:01:52.198Z,8.17
2022-10-29T11:04:20.871Z,7.30
2022-10-29T11:06:49.729Z,7.13
2022-10-29T11:09:24.209Z,7.30
2022-10-29T11:12:11.549Z,7.43
2022-10-29T11:14:44.271Z,6.60
2022-10-29T11:17:31.273Z,7.40
2022-10-29T11:20:00.292Z,7.07
2022-10-29T11:22:38.126Z,6.17
2022-10-29T11:25:14.571Z,6.50
2022-10-29T11:27:45.603Z,7.77
2022-10-29T11:30:13.379Z,5.87
2022-10-29T11:32:57.372Z,8.23
2022-10-29T11:35:29.796Z,5.90
2022-10-29T11:38:16.726Z,6.60
2022-10-29T11:41:04.897Z,6.13
2022-10-29T11:43:32.370Z,5.70
2022-10-29T11:46:11.016Z,6.37
2022-10-29T11:48:40.685Z,6.00
2022-10-29T11:51:10.883Z,6.53
2022-10-29T11:53:55.863Z,5.80
2022-10-29T11:56:42.799Z,6.00
2022-10-29T11:59:22.367Z,5.97
2022-10-29T12:01:56.837Z,7.37
2022-10-29T12:04:35.066Z,5.57
2022-10-29T12:07:13.670Z,5.40
2022-10-29T12:09:46.361Z,5.93
2022-10-29T12:12:21.099Z,5.40
2022-10-29T12:14:56.891Z,5.73
2022-10-29T12:17:36.015Z,6.93
2022-10-29T12:20:11.827Z,7.20
2022-10-29T12:22:41.144Z,5.80
2022-10-29T12:25:26.370Z,4.90
2022-10-29T12:28:04.409Z,6.70
2022-10-29T12:30:34.279Z,6.70
2022-10-29T12:33:10.087Z,6.50
2022-10-29T12:35:47.472Z,5.20
2022-10-29T12:38:20.203Z,6.80
2022-10-29T12:40:48.859Z,5.67
2022-10-29T12:43:23.443Z,6.00
2022-10-29T12:46:24.253Z,5.60
2022-10-29T12:48:50.793Z,5.97
2022-10-29T12:51:36.270Z,7.60
2022-10-29T12:54:12.857Z,5.77
2022-10-29T12:56:39.899Z,5.97
2022-10-29T12:59:24.738Z,6.50
2022-10-29T13:02:11.499Z,6.50
2022-10-29T13:04:38.281Z,6.70
2022-10-29T13:07:04.841Z,8.90
2022-10-29T13:09:35.987Z,8.20
2022-10-29T13:12:09.781Z,6.87
2022-10-29T13:15:02.911Z,5.97
2022-10-29T13:17:34.751Z,7.43
2022-10-29T13:20:01.234Z,6.40
2022-10-29T13:22:30.744Z,5.20
2022-10-29T13:25:16.194Z,5.27
2022-10-29T13:27:42.738Z,7.40
2022-10-29T13:30:21.436Z,6.70
2022-10-29T13:32:48.006Z,6.93
2022-10-29T13:35:17.486Z,6.00
2022-10-29T13:37:47.056Z,6.63
2022-10-29T13:40:23.192Z,7.00
2022-10-29T13:43:09.995Z,7.17
2022-10-29T13:45:37.598Z,6.63
2022-10-29T13:48:05.839Z,6.70
2022-10-29T13:50:33.870Z,7.23
2022-10-29T13:53:01.494Z,6.43
2022-10-29T13:55:30.457Z,7.47
2022-10-29T13:58:06.359Z,6.60
2022-10-29T14:00:35.235Z,6.47
2022-10-29T14:03:14.961Z,7.87
2022-10-29T14:05:42.218Z,8.63
2022-10-29T14:08:08.881Z,7.07
2022-10-29T14:10:42.362Z,7.40
2022-10-29T14:13:08.933Z,10.37
2022-10-29T14:15:39.128Z,7.13
2022-10-29T14:18:18.975Z,7.43
2022-10-29T14:20:53.805Z,6.83
2022-10-29T14:23:20.420Z,6.70
2022-10-29T14:25:51.051Z,6.97
2022-10-29T14:28:25.254Z,7.20
2022-10-29T14:31:02.489Z,5.80
2022-10-29T14:33:30.334Z,7.90
2022-10-29T14:36:00.344Z,5.57
2022-10-29T14:38:33.445Z,6.13
2022-10-29T14:41:00.334Z,6.93
2022-10-29T14:43:28.112Z,7.80
2022-10-29T14:45:56.135Z,7.50
2022-10-29T14:48:23.018Z,7.70
2022-10-29T14:50:50.614Z,5.60
2022-10-29T14:53:23.945Z,7.07
2022-10-29T14:55:50.596Z,8.03
2022-10-29T14:58:20.663Z,5.40
2022-10-29T15:01:09.939Z,6.60
2022-10-29T15:03:37.219Z,6.90
2022-10-29T15:06:13.233Z,8.73
2022-10-29T15:08:44.037Z,8.27
2022-10-29T15:11:29.859Z,6.50
2022-10-29T15:13:56.598Z,6.60
2022-10-29T15:16:23.487Z,9.00
2022-10-29T15:18:51.947Z,9.20
2022-10-29T15:21:22.800Z,8.17
2022-10-29T15:23:51.223Z,8.20
2022-10-29T15:26:22.023Z,6.97
2022-10-29T15:28:52.998Z,8.13
2022-10-29T15:31:21.225Z,7.17
2022-10-29T15:33:50.090Z,7.50
2022-10-29T15:36:16.872Z,7.63
2022-10-29T15:38:51.191Z,8.80
2022-10-29T15:41:19.245Z,7.50
2022-10-29T15:43:50.060Z,8.93
2022-10-29T15:46:43.956Z,8.10
2022-10-29T15:49:16.788Z,8.00
2022-10-29T15:51:43.382Z,9.97
2022-10-29T15:54:13.936Z,8.30
2022-10-29T15:56:40.647Z,9.17
2022-10-29T15:59:10.393Z,8.47
2022-10-29T16:01:37.131Z,8.70
2022-10-29T16:04:03.917Z,9.10
2022-10-29T16:06:30.866Z,8.30
2022-10-29T16:08:58.466Z,8.90
2022-10-29T16:11:25.323Z,9.33
2022-10-29T16:13:55.055Z,10.07
2022-10-29T16:16:23.299Z,9.17
2022-10-29T16:18:50.186Z,8.37
2022-10-29T16:21:23.707Z,7.60
2022-10-29T16:23:51.383Z,8.07
2022-10-29T16:26:22.596Z,10.30
2022-10-29T16:28:49.329Z,8.37
2022-10-29T16:31:15.944Z,8.03
2022-10-29T16:33:42.681Z,7.57
2022-10-29T16:36:09.953Z,8.33
2022-10-29T16:38:36.548Z,7.20
2022-10-29T16:41:03.130Z,8.53
2022-10-29T16:43:29.802Z,9.40
2022-10-29T16:45:58.517Z,9.83
2022-10-29T16:48:27.925Z,8.13
2022-10-29T16:50:54.510Z,10.17
2022-10-29T16:53:21.155Z,10.13
2022-10-29T16:55:48.913Z,8.97
2022-10-29T16:58:16.586Z,10.30
2022-10-29T17:00:43.513Z,9.03
2022-10-29T17:03:12.013Z,8.83
2022-10-29T17:05:40.111Z,9.07
2022-10-29T17:08:06.966Z,9.03
2022-10-29T17:10:33.822Z,9.83
2022-10-29T17:13:00.663Z,9.50
2022-10-29T17:15:27.535Z,8.97
2022-10-29T17:17:54.176Z,9.17
2022-10-29T17:20:21.119Z,8.93
2022-10-29T17:22:47.750Z,8.93
2022-10-29T17:25:14.401Z,9.20
2022-10-29T17:27:41.308Z,9.27
2022-10-29T17:30:08.440Z,9.13
2022-10-29T17:32:35.107Z,11.30
2022-10-29T17:35:01.727Z,10.90
2022-10-29T17:37:28.360Z,9.50
2022-10-29T17:39:55.148Z,10.90
2022-10-29T17:42:21.815Z,10.13
2022-10-29T17:44:48.452Z,9.10
2022-10-29T17:47:15.524Z,8.90
2022-10-29T17:49:42.280Z,8.47
2022-10-29T17:52:08.873Z,8.20
2022-10-29T17:54:35.557Z,8.27
2022-10-29T17:57:02.201Z,6.60
2022-10-29T17:59:28.866Z,8.30
2022-10-29T18:01:55.566Z,9.67
2022-10-29T18:04:22.411Z,9.90
2022-10-29T18:06:49.078Z,8.73
2022-10-29T18:09:18.580Z,8.60
2022-10-29T18:11:48.444Z,10.57
2022-10-29T18:14:14.990Z,7.67
2022-10-29T18:16:41.669Z,10.20
2022-10-29T18:19:08.243Z,9.00
2022-10-29T18:21:34.848Z,7.57
2022-10-29T18:24:01.483Z,7.77
2022-10-29T18:26:30.703Z,10.33
2022-10-29T18:28:58.014Z,10.33
2022-10-29T18:31:27.275Z,11.00
2022-10-29T18:33:54.275Z,9.10
2022-10-29T18:36:20.894Z,10.63
2022-10-29T18:38:51.602Z,9.83
2022-10-29T18:41:18.349Z,11.50
2022-10-29T18:43:44.914Z,10.20
2022-10-29T18:46:11.563Z,9.90
2022-10-29T18:48:39.487Z,9.50
2022-10-29T18:51:10.374Z,9.70
2022-10-29T18:53:37.600Z,12.30
2022-10-29T18:56:08.232Z,11.90
2022-10-29T18:58:34.816Z,10.37
2022-10-29T19:01:06.033Z,11.00
2022-10-29T19:03:33.891Z,11.90
2022-10-29T19:06:01.806Z,11.83
2022-10-29T19:08:28.634Z,11.30
2022-10-29T19:10:55.885Z,10.90
2022-10-29T19:13:22.511Z,11.00
2022-10-29T19:15:49.032Z,10.97
2022-10-29T19:18:15.814Z,10.97
2022-10-29T19:20:42.433Z,10.17
2022-10-29T19:23:09.175Z,10.63
2022-10-29T19:25:39.629Z,11.00
2022-10-29T19:28:06.268Z,12.07
2022-10-29T19:30:32.979Z,10.30
2022-10-29T19:33:04.929Z,11.00
2022-10-29T19:35:34.160Z,12.20
2022-10-29T19:38:00.833Z,10.80
2022-10-29T19:40:27.480Z,10.50
2022-10-29T19:42:54.163Z,10.57
2022-10-29T19:45:21.892Z,11.40
2022-10-29T19:47:48.463Z,11.00
2022-10-29T19:50:15.182Z,9.33
2022-10-29T19:52:41.882Z,10.60
2022-10-29T19:55:09.065Z,10.50
2022-10-29T19:57:35.622Z,11.10
2022-10-29T20:00:02.281Z,10.57
2022-10-29T20:02:31.616Z,12.03
2022-10-29T20:04:58.262Z,10.33
2022-10-29T20:07:25.012Z,10.30
2022-10-29T20:09:52.668Z,10.40
2022-10-29T20:12:19.266Z,9.93
2022-10-29T20:14:46.976Z,11.47
2022-10-29T20:17:13.653Z,10.43
2022-10-29T20:19:40.490Z,10.70
2022-10-29T20:22:07.079Z,9.03
2022-10-29T20:24:33.691Z,10.00
2022-10-29T20:27:00.358Z,9.53
2022-10-29T20:29:26.920Z,10.73
2022-10-29T20:31:53.502Z,9.93
2022-10-29T20:34:20.149Z,12.27
2022-10-29T20:36:47.309Z,13.00
2022-10-29T20:39:17.063Z,11.37
2022-10-29T20:41:43.757Z,10.87
2022-10-29T20:44:10.413Z,10.63
2022-10-29T20:46:40.882Z,11.27
2022-10-29T20:49:10.106Z,8.77
2022-10-29T20:51:36.865Z,9.70
2022-10-29T20:54:03.584Z,10.13
2022-10-29T20:56:30.163Z,11.60
2022-10-29T20:58:56.806Z,11.43
2022-10-29T21:01:24.570Z,10.23
2022-10-29T21:03:51.585Z,10.53
2022-10-29T21:06:19.094Z,10.37
2022-10-29T21:08:46.453Z,11.63
2022-10-29T21:11:14.374Z,11.70
2022-10-29T21:13:41.427Z,10.70
2022-10-29T21:16:14.963Z,11.43
2022-10-29T21:18:42.163Z,13.33
2022-10-29T21:21:09.230Z,11.00
2022-10-29T21:23:37.276Z,9.70
2022-10-29T21:26:04.635Z,10.40
2022-10-29T21:28:31.348Z,10.37
2022-10-29T21:30:59.057Z,9.97
2022-10-29T21:33:25.727Z,11.70
2022-10-29T21:35:54.016Z,10.77
2022-10-29T21:38:21.422Z,10.57
2022-10-29T21:40:48.079Z,11.77
2022-10-29T21:43:15.756Z,10.80
2022-10-29T21:45:42.989Z,10.57
2022-10-29T21:48:10.121Z,11.30
2022-10-29T21:50:36.748Z,10.47
2022-10-29T21:53:03.713Z,10.77
2022-10-29T21:55:30.700Z,10.87
2022-10-29T21:57:57.835Z,11.33
2022-10-29T22:00:24.722Z,11.33
2022-10-29T22:02:51.398Z,9.63
2022-10-29T22:05:18.043Z,12.80
2022-10-29T22:07:44.658Z,11.07
2022-10-29T22:10:11.708Z,12.03
2022-10-29T22:12:38.788Z,10.67
2022-10-29T22:15:07.150Z,11.97
2022-10-29T22:17:33.693Z,10.00
2022-10-29T22:20:00.249Z,11.17
2022-10-29T22:22:26.825Z,12.10
2022-10-29T22:24:53.369Z,12.50
2022-10-29T22:27:19.881Z,13.77
2022-10-29T22:29:48.530Z,12.97
2022-10-29T22:32:17.216Z,12.63
2022-10-29T22:34:43.758Z,11.57
2022-10-29T22:37:10.328Z,11.40
2022-10-29T22:39:36.789Z,11.33
2022-10-29T22:42:03.507Z,13.40
2022-10-29T22:44:30.060Z,11.60
2022-10-29T22:46:56.610Z,10.60
2022-10-29T22:49:23.204Z,11.97
2022-10-29T22:51:49.945Z,12.50
2022-10-29T22:54:16.712Z,11.07
2022-10-29T22:56:43.261Z,10.83
2022-10-29T22:59:09.825Z,11.43
2022-10-29T23:01:40.349Z,11.23
2022-10-29T23:04:10.705Z,13.47
2022-10-29T23:06:37.291Z,11.40
2022-10-29T23:09:03.818Z,10.40
2022-10-29T23:11:32.152Z,12.20
2022-10-29T23:13:59.678Z,11.70
2022-10-29T23:16:27.394Z,11.00
2022-10-29T23:18:54.957Z,9.67
2022-10-29T23:21:21.840Z,11.40
2022-10-29T23:23:49.996Z,11.80
2022-10-29T23:26:20.608Z,12.20
2022-10-29T23:28:47.629Z,12.00
2022-10-29T23:31:24.701Z,11.13
2022-10-29T23:33:52.165Z,10.27
2022-10-29T23:36:19.790Z,11.83
2022-10-29T23:38:46.357Z,10.50
2022-10-29T23:41:12.960Z,10.80
2022-10-29T23:43:39.472Z,10.80
2022-10-29T23:46:06.407Z,10.17
2022-10-29T23:48:32.904Z,10.60
2022-10-29T23:50:59.632Z,10.67
2022-10-29T23:53:26.813Z,11.30
2022-10-29T23:55:53.387Z,10.27
2022-10-29T23:58:20.062Z,11.17
